createdAt,value
2023-01-19T00:01:02.011Z,73.30
2023-01-19T00:03:29.247Z,73.40
2023-01-19T00:05:56.627Z,73.30
2023-01-19T00:08:23.943Z,73.30
2023-01-19T00:10:51.397Z,73.30
2023-01-19T00:13:20.238Z,73.30
2023-01-19T00:15:47.485Z,73.40
2023-01-19T00:18:14.743Z,73.40
2023-01-19T00:20:44.629Z,73.30
2023-01-19T00:23:11.935Z,73.20
2023-01-19T00:25:42.514Z,73.30
2023-01-19T00:28:10.762Z,73.20
2023-01-19T00:30:40.433Z,73.40
2023-01-19T00:33:07.732Z,73.30
2023-01-19T00:35:35.642Z,73.30
2023-01-19T00:38:03.357Z,73.40
2023-01-19T00:40:30.634Z,73.40
2023-01-19T00:42:58.705Z,73.40
2023-01-19T00:45:26.396Z,73.30
2023-01-19T00:47:57.099Z,73.40
2023-01-19T00:50:25.704Z,73.60
2023-01-19T00:52:53.706Z,73.70
2023-01-19T00:55:21.397Z,73.80
2023-01-19T00:57:48.973Z,74.00
2023-01-19T01:00:19.792Z,74.00
2023-01-19T01:02:48.753Z,74.20
2023-01-19T01:05:18.658Z,74.10
2023-01-19T01:07:46.932Z,74.30
2023-01-19T01:10:16.447Z,74.20
2023-01-19T01:12:56.168Z,74.20
2023-01-19T01:15:27.185Z,74.10
2023-01-19T01:17:54.550Z,74.30
2023-01-19T01:20:26.970Z,74.20
2023-01-19T01:22:55.066Z,74.20
2023-01-19T01:25:23.942Z,74.30
2023-01-19T01:27:51.214Z,74.20
2023-01-19T01:30:19.143Z,74.30
2023-01-19T01:32:46.578Z,74.30
2023-01-19T01:35:14.744Z,74.40
2023-01-19T01:37:43.374Z,74.40
2023-01-19T01:40:13.452Z,74.40
2023-01-19T01:42:40.721Z,74.40
2023-01-19T01:45:26.911Z,74.50
2023-01-19T01:47:58.133Z,74.40
2023-01-19T01:50:28.341Z,74.10
2023-01-19T01:53:07.076Z,74.20
2023-01-19T01:55:39.635Z,74.30
2023-01-19T01:58:09.328Z,74.10
2023-01-19T02:00:56.606Z,74.00
2023-01-19T02:03:25.853Z,74.00
2023-01-19T02:05:57.391Z,74.10
2023-01-19T02:08:50.828Z,74.10
2023-01-19T02:11:36.741Z,74.30
2023-01-19T02:14:04.688Z,74.30
2023-01-19T02:16:32.339Z,74.60
2023-01-19T02:19:01.115Z,74.60
2023-01-19T02:21:35.841Z,74.80
2023-01-19T02:24:06.354Z,75.00
2023-01-19T02:26:36.592Z,74.80
2023-01-19T02:29:06.838Z,74.80
2023-01-19T02:31:35.419Z,74.90
2023-01-19T02:34:03.878Z,74.70
2023-01-19T02:36:36.198Z,74.70
2023-01-19T02:39:06.188Z,74.60
2023-01-19T02:41:38.882Z,74.60
2023-01-19T02:44:08.394Z,74.60
2023-01-19T02:46:36.192Z,74.40
2023-01-19T02:49:03.528Z,74.50
2023-01-19T02:51:30.932Z,74.70
2023-01-19T02:54:20.154Z,74.60
2023-01-19T02:57:12.275Z,74.40
2023-01-19T02:59:52.138Z,74.50
2023-01-19T03:02:30.034Z,74.40
2023-01-19T03:05:06.948Z,74.50
2023-01-19T03:07:45.302Z,74.60
2023-01-19T03:10:20.345Z,74.60
2023-01-19T03:12:52.581Z,74.80
2023-01-19T03:15:23.549Z,74.90
2023-01-19T03:17:53.317Z,75.30
2023-01-19T03:20:25.422Z,75.40
2023-01-19T03:22:57.383Z,75.50
2023-01-19T03:25:28.071Z,75.60
2023-01-19T03:27:57.799Z,75.60
2023-01-19T03:30:28.144Z,75.70
2023-01-19T03:33:00.143Z,75.70
2023-01-19T03:35:32.258Z,75.50
2023-01-19T03:38:04.394Z,75.60
2023-01-19T03:40:34.497Z,75.40
2023-01-19T03:43:03.468Z,75.40
2023-01-19T03:45:33.398Z,75.30
2023-01-19T03:48:00.794Z,75.40
2023-01-19T03:50:30.040Z,75.40
2023-01-19T03:53:03.133Z,75.20
2023-01-19T03:55:30.781Z,75.40
2023-01-19T03:57:59.396Z,75.50
2023-01-19T04:00:26.644Z,75.30
2023-01-19T04:02:53.962Z,75.40
2023-01-19T04:05:22.275Z,75.50
2023-01-19T04:07:49.915Z,75.60
2023-01-19T04:10:18.194Z,75.50
2023-01-19T04:12:45.864Z,75.30
2023-01-19T04:15:15.189Z,75.80
2023-01-19T04:17:42.545Z,76.00
2023-01-19T04:20:10.623Z,75.90
2023-01-19T04:22:39.170Z,75.90
2023-01-19T04:25:07.959Z,75.90
2023-01-19T04:27:35.629Z,75.70
2023-01-19T04:30:04.343Z,75.60
2023-01-19T04:32:33.522Z,75.50
2023-01-19T04:35:00.855Z,75.30
2023-01-19T04:37:28.307Z,75.20
2023-01-19T04:39:55.569Z,75.10
2023-01-19T04:42:23.071Z,75.20
2023-01-19T04:44:50.323Z,75.20
2023-01-19T04:47:17.611Z,75.10
2023-01-19T04:49:46.201Z,75.10
2023-01-19T04:52:13.464Z,75.10
2023-01-19T04:54:40.686Z,75.10
2023-01-19T04:57:08.288Z,75.10
2023-01-19T04:59:35.528Z,75.40
2023-01-19T05:02:02.840Z,75.40
2023-01-19T05:04:30.178Z,75.20
2023-01-19T05:06:58.733Z,75.00
2023-01-19T05:09:27.186Z,75.00
2023-01-19T05:11:54.543Z,75.00
2023-01-19T05:14:22.029Z,75.00
2023-01-19T05:16:49.324Z,75.00
2023-01-19T05:19:16.588Z,74.70
2023-01-19T05:21:43.879Z,74.90
2023-01-19T05:24:12.685Z,74.60
2023-01-19T05:26:39.960Z,74.90
2023-01-19T05:29:08.215Z,74.70
2023-01-19T05:31:36.222Z,74.70
2023-01-19T05:34:03.894Z,74.60
2023-01-19T05:36:31.964Z,74.70
2023-01-19T05:38:59.359Z,74.50
2023-01-19T05:41:28.018Z,74.70
2023-01-19T05:43:55.282Z,74.60
2023-01-19T05:46:22.608Z,74.90
2023-01-19T05:48:49.912Z,74.80
2023-01-19T05:51:17.230Z,74.90
2023-01-19T05:53:44.655Z,74.90
2023-01-19T05:56:12.111Z,74.90
2023-01-19T05:58:40.743Z,74.90
2023-01-19T06:01:10.096Z,75.00
2023-01-19T06:03:39.548Z,75.30
2023-01-19T06:06:07.342Z,75.30
2023-01-19T06:08:34.665Z,75.10
2023-01-19T06:11:01.892Z,75.40
2023-01-19T06:13:29.141Z,75.30
2023-01-19T06:15:59.093Z,75.30
2023-01-19T06:18:26.843Z,75.30
2023-01-19T06:20:58.598Z,75.40
2023-01-19T06:23:26.122Z,75.70
2023-01-19T06:25:53.449Z,75.90
2023-01-19T06:28:20.761Z,75.80
2023-01-19T06:30:49.109Z,75.70
2023-01-19T06:33:18.805Z,75.70
2023-01-19T06:35:47.386Z,75.70
2023-01-19T06:38:15.471Z,75.60
2023-01-19T06:40:42.968Z,75.40
2023-01-19T06:43:11.080Z,75.60
2023-01-19T06:45:41.146Z,75.60
2023-01-19T06:48:08.585Z,75.90
2023-01-19T06:50:37.169Z,75.80
2023-01-19T06:53:04.478Z,75.90
2023-01-19T06:55:31.788Z,75.70
2023-01-19T06:57:59.716Z,75.50
2023-01-19T07:00:27.088Z,75.70
2023-01-19T07:02:54.641Z,75.80
2023-01-19T07:05:22.175Z,75.70
2023-01-19T07:07:54.456Z,75.60
2023-01-19T07:10:22.633Z,75.50
2023-01-19T07:12:50.444Z,75.30
2023-01-19T07:15:22.553Z,75.60
2023-01-19T07:17:50.009Z,75.40
2023-01-19T07:20:19.530Z,75.70
2023-01-19T07:22:46.954Z,75.70
2023-01-19T07:25:15.722Z,75.70
2023-01-19T07:27:43.027Z,75.50
2023-01-19T07:30:11.245Z,75.50
2023-01-19T07:32:38.983Z,75.40
2023-01-19T07:35:06.609Z,75.60
2023-01-19T07:37:33.901Z,75.30
2023-01-19T07:40:01.223Z,75.30
2023-01-19T07:42:29.883Z,75.20
2023-01-19T07:44:57.381Z,75.10
2023-01-19T07:47:24.751Z,75.20
2023-01-19T07:49:52.660Z,75.00
2023-01-19T07:52:19.903Z,75.10
2023-01-19T07:54:50.809Z,75.40
2023-01-19T07:57:19.210Z,75.30
2023-01-19T07:59:47.776Z,75.00
2023-01-19T08:02:16.368Z,75.20
2023-01-19T08:04:44.721Z,75.40
2023-01-19T08:07:12.600Z,75.60
2023-01-19T08:09:39.925Z,75.80
2023-01-19T08:12:07.257Z,75.20
2023-01-19T08:14:34.599Z,75.10
2023-01-19T08:17:03.820Z,74.30
2023-01-19T08:19:31.104Z,74.10
2023-01-19T08:21:59.202Z,73.70
2023-01-19T08:24:28.613Z,72.60
2023-01-19T08:26:59.562Z,72.20
2023-01-19T08:29:27.224Z,71.00
2023-01-19T08:31:56.468Z,70.20
2023-01-19T08:34:25.181Z,68.20
2023-01-19T08:36:52.455Z,68.20
2023-01-19T08:39:19.845Z,67.00
2023-01-19T08:41:47.160Z,67.10
2023-01-19T08:44:14.543Z,66.70
2023-01-19T08:46:41.917Z,64.60
2023-01-19T08:49:09.457Z,65.00
2023-01-19T08:51:38.230Z,64.70
2023-01-19T08:54:05.528Z,63.20
2023-01-19T08:56:32.840Z,62.40
2023-01-19T08:59:09.218Z,62.50
2023-01-19T09:01:37.712Z,61.70
2023-01-19T09:04:05.537Z,61.20
2023-01-19T09:06:32.958Z,60.40
2023-01-19T09:09:01.519Z,59.30
2023-01-19T09:11:28.786Z,58.80
2023-01-19T09:13:56.084Z,58.00
2023-01-19T09:16:23.393Z,59.10
2023-01-19T09:18:50.712Z,57.10
2023-01-19T09:21:18.588Z,56.10
2023-01-19T09:23:45.819Z,55.50
2023-01-19T09:26:14.533Z,56.20
2023-01-19T09:28:41.820Z,54.70
2023-01-19T09:31:09.505Z,54.20
2023-01-19T09:33:36.919Z,53.30
2023-01-19T09:36:04.446Z,53.40
2023-01-19T09:38:32.902Z,52.10
2023-01-19T09:41:01.189Z,53.50
2023-01-19T09:43:37.644Z,52.40
2023-01-19T09:46:12.770Z,51.90
2023-01-19T09:48:45.846Z,51.90
2023-01-19T09:51:18.639Z,51.90
2023-01-19T09:53:56.445Z,49.90
2023-01-19T09:56:24.570Z,49.70
2023-01-19T09:58:53.241Z,50.40
2023-01-19T10:01:35.145Z,51.10
2023-01-19T10:04:26.282Z,49.50
2023-01-19T10:07:03.548Z,49.30
2023-01-19T10:09:37.098Z,48.00
2023-01-19T10:12:12.522Z,48.00
2023-01-19T10:14:48.031Z,47.50
2023-01-19T10:17:26.269Z,47.60
2023-01-19T10:19:56.923Z,49.50
2023-01-19T10:22:26.807Z,48.10
2023-01-19T10:24:56.954Z,46.90
2023-01-19T10:27:28.395Z,48.50
2023-01-19T10:29:57.269Z,47.90
2023-01-19T10:32:26.850Z,47.00
2023-01-19T10:34:55.693Z,48.00
2023-01-19T10:37:30.592Z,47.90
2023-01-19T10:40:02.270Z,49.40
2023-01-19T10:42:30.852Z,47.90
2023-01-19T10:44:59.594Z,49.00
2023-01-19T10:47:33.442Z,47.50
2023-01-19T10:50:06.208Z,48.40
2023-01-19T10:52:36.382Z,48.00
2023-01-19T10:55:06.729Z,47.20
2023-01-19T10:57:38.235Z,49.20
2023-01-19T11:00:37.832Z,49.20
2023-01-19T11:03:20.867Z,48.20
2023-01-19T11:05:48.213Z,48.90
2023-01-19T11:08:23.294Z,49.00
2023-01-19T11:10:55.389Z,48.70
2023-01-19T11:13:22.687Z,48.20
2023-01-19T11:15:55.088Z,49.20
2023-01-19T11:18:27.381Z,48.80
2023-01-19T11:20:57.015Z,48.50
2023-01-19T11:23:27.948Z,49.20
2023-01-19T11:25:58.012Z,48.50
2023-01-19T11:28:29.897Z,49.50
2023-01-19T11:31:00.742Z,49.50
2023-01-19T11:33:34.130Z,49.40
2023-01-19T11:36:07.143Z,50.50
2023-01-19T11:38:43.438Z,49.70
2023-01-19T11:41:18.764Z,50.30
2023-01-19T11:43:49.589Z,50.50
2023-01-19T11:46:19.044Z,49.90
2023-01-19T11:48:50.664Z,50.20
2023-01-19T11:51:22.067Z,50.40
2023-01-19T11:53:53.194Z,49.80
2023-01-19T11:56:25.823Z,50.00
2023-01-19T11:58:53.284Z,50.40
2023-01-19T12:01:24.817Z,49.70
2023-01-19T12:03:58.924Z,50.10
2023-01-19T12:06:30.710Z,50.20
2023-01-19T12:09:01.603Z,49.60
2023-01-19T12:11:34.413Z,51.10
2023-01-19T12:14:02.403Z,50.10
2023-01-19T12:16:33.920Z,49.40
2023-01-19T12:19:05.125Z,49.50
2023-01-19T12:21:32.453Z,48.30
2023-01-19T12:24:11.507Z,49.40
2023-01-19T12:26:48.725Z,51.60
2023-01-19T12:29:19.842Z,50.70
2023-01-19T12:32:17.849Z,49.60
2023-01-19T12:34:46.801Z,48.90
2023-01-19T12:37:35.887Z,49.70
2023-01-19T12:40:18.418Z,50.00
2023-01-19T12:42:47.861Z,50.50
2023-01-19T12:45:18.097Z,49.30
2023-01-19T12:47:53.131Z,49.00
2023-01-19T12:50:25.645Z,48.70
2023-01-19T12:52:57.357Z,48.20
2023-01-19T12:55:30.950Z,49.80
2023-01-19T12:58:01.541Z,49.10
2023-01-19T13:00:32.556Z,49.20
2023-01-19T13:03:02.450Z,48.20
2023-01-19T13:05:57.993Z,48.00
2023-01-19T13:08:29.993Z,47.30
2023-01-19T13:11:19.814Z,47.70
2023-01-19T13:14:26.878Z,47.60
2023-01-19T13:17:14.926Z,48.80
2023-01-19T13:19:52.050Z,48.70
2023-01-19T13:23:02.569Z,48.10
2023-01-19T13:25:34.203Z,48.20
2023-01-19T13:28:06.901Z,47.90
2023-01-19T13:30:35.270Z,50.30
2023-01-19T13:33:10.047Z,49.60
2023-01-19T13:35:38.853Z,49.00
2023-01-19T13:38:07.449Z,48.60
2023-01-19T13:40:38.902Z,48.90
2023-01-19T13:43:15.944Z,47.80
2023-01-19T13:45:50.691Z,48.70
2023-01-19T13:48:22.163Z,48.20
2023-01-19T13:51:03.964Z,48.30
2023-01-19T13:53:32.375Z,49.00
2023-01-19T13:56:16.503Z,48.90
2023-01-19T13:58:44.150Z,48.70
2023-01-19T14:01:22.560Z,49.30
2023-01-19T14:03:53.002Z,49.80
2023-01-19T14:06:32.637Z,49.50
2023-01-19T14:09:16.739Z,49.20
2023-01-19T14:11:45.729Z,49.30
2023-01-19T14:14:26.650Z,49.70
2023-01-19T14:16:54.497Z,49.70
2023-01-19T14:19:21.899Z,51.00
2023-01-19T14:22:00.946Z,50.20
2023-01-19T14:24:32.013Z,51.80
2023-01-19T14:27:09.777Z,51.40
2023-01-19T14:29:38.097Z,50.70
2023-01-19T14:32:13.285Z,51.00
2023-01-19T14:34:42.002Z,51.80
2023-01-19T14:37:17.850Z,52.70
2023-01-19T14:39:46.794Z,52.50
2023-01-19T14:42:19.221Z,52.70
2023-01-19T14:44:49.773Z,52.80
2023-01-19T14:47:31.024Z,53.90
2023-01-19T14:50:02.494Z,54.20
2023-01-19T14:52:36.400Z,54.70
2023-01-19T14:55:08.170Z,55.10
2023-01-19T14:57:38.967Z,55.50
2023-01-19T15:00:17.741Z,56.60
2023-01-19T15:02:45.901Z,56.80
2023-01-19T15:05:13.967Z,56.80
2023-01-19T15:07:45.206Z,56.80
2023-01-19T15:10:18.300Z,56.90
2023-01-19T15:12:45.562Z,57.50
2023-01-19T15:15:17.915Z,58.10
2023-01-19T15:17:45.559Z,58.80
2023-01-19T15:20:18.111Z,59.60
2023-01-19T15:22:47.605Z,59.80
2023-01-19T15:25:15.996Z,60.60
2023-01-19T15:27:43.664Z,60.70
2023-01-19T15:30:16.982Z,60.90
2023-01-19T15:32:44.695Z,61.00
2023-01-19T15:35:17.367Z,61.20
2023-01-19T15:37:45.169Z,61.10
2023-01-19T15:40:15.299Z,61.30
2023-01-19T15:42:42.756Z,61.50
2023-01-19T15:45:32.356Z,62.00
2023-01-19T15:48:00.711Z,62.50
2023-01-19T15:50:28.058Z,63.00
2023-01-19T15:52:55.357Z,63.20
2023-01-19T15:55:24.180Z,63.80
2023-01-19T15:57:51.427Z,63.80
2023-01-19T16:00:19.209Z,63.90
2023-01-19T16:02:46.608Z,64.10
2023-01-19T16:05:13.898Z,64.20
2023-01-19T16:07:41.264Z,64.40
2023-01-19T16:10:09.714Z,64.50
2023-01-19T16:12:38.783Z,64.40
2023-01-19T16:15:07.431Z,64.50
2023-01-19T16:17:34.990Z,64.60
2023-01-19T16:20:02.644Z,64.80
2023-01-19T16:22:30.117Z,64.80
2023-01-19T16:24:57.483Z,64.90
2023-01-19T16:27:25.409Z,65.10
2023-01-19T16:29:53.973Z,65.30
2023-01-19T16:32:21.223Z,65.40
2023-01-19T16:34:48.795Z,65.20
2023-01-19T16:37:16.032Z,65.40
2023-01-19T16:39:45.378Z,65.80
2023-01-19T16:42:12.733Z,65.80
2023-01-19T16:44:40.091Z,65.90
2023-01-19T16:47:08.799Z,66.40
2023-01-19T16:49:36.266Z,66.30
2023-01-19T16:52:03.875Z,66.50
2023-01-19T16:54:32.159Z,66.80
2023-01-19T16:56:59.943Z,67.00
2023-01-19T16:59:29.005Z,66.90
2023-01-19T17:01:56.941Z,67.00
2023-01-19T17:04:27.128Z,67.00
2023-01-19T17:06:54.861Z,67.20
2023-01-19T17:09:22.331Z,67.20
2023-01-19T17:11:49.649Z,67.40
2023-01-19T17:14:20.447Z,67.30
2023-01-19T17:16:48.775Z,67.60
2023-01-19T17:19:17.718Z,67.40
2023-01-19T17:21:50.667Z,67.30
2023-01-19T17:24:18.314Z,67.30
2023-01-19T17:26:48.494Z,67.10
2023-01-19T17:29:16.619Z,67.10
2023-01-19T17:31:44.603Z,67.40
2023-01-19T17:34:11.959Z,67.40
2023-01-19T17:36:40.933Z,67.40
2023-01-19T17:39:14.617Z,67.40
2023-01-19T17:41:41.987Z,67.70
2023-01-19T17:44:10.763Z,67.60
2023-01-19T17:46:38.726Z,67.50
2023-01-19T17:49:07.328Z,67.30
2023-01-19T17:51:35.061Z,67.20
2023-01-19T17:54:04.023Z,67.20
2023-01-19T17:56:36.796Z,67.00
2023-01-19T17:59:06.491Z,67.10
2023-01-19T18:01:34.668Z,67.00
2023-01-19T18:04:02.568Z,66.90
2023-01-19T18:06:30.192Z,66.90
2023-01-19T18:08:59.324Z,66.90
2023-01-19T18:11:27.546Z,67.00
2023-01-19T18:13:56.457Z,67.00
2023-01-19T18:16:25.957Z,66.80
2023-01-19T18:18:54.619Z,67.10
2023-01-19T18:21:23.690Z,67.10
2023-01-19T18:23:51.615Z,67.00
2023-01-19T18:26:21.428Z,66.90
2023-01-19T18:28:49.384Z,66.90
2023-01-19T18:31:19.157Z,66.90
2023-01-19T18:33:47.750Z,67.10
2023-01-19T18:36:16.011Z,67.30
2023-01-19T18:38:43.433Z,67.40
2023-01-19T18:41:12.719Z,67.30
2023-01-19T18:43:40.303Z,67.30
2023-01-19T18:46:08.219Z,67.20
2023-01-19T18:48:37.571Z,67.20
2023-01-19T18:51:06.180Z,67.30
2023-01-19T18:53:33.515Z,67.40
2023-01-19T18:56:02.073Z,67.30
2023-01-19T18:58:31.533Z,67.20
2023-01-19T19:01:00.048Z,67.10
2023-01-19T19:03:28.043Z,67.40
2023-01-19T19:05:56.956Z,67.60
2023-01-19T19:08:24.421Z,67.70
2023-01-19T19:10:51.692Z,67.60
2023-01-19T19:13:21.764Z,67.40
2023-01-19T19:15:52.428Z,67.30
2023-01-19T19:18:19.835Z,67.40
2023-01-19T19:20:47.095Z,67.40
2023-01-19T19:23:15.704Z,67.20
2023-01-19T19:25:42.952Z,67.30
2023-01-19T19:28:10.175Z,67.30
2023-01-19T19:30:38.983Z,67.60
2023-01-19T19:33:07.725Z,67.60
2023-01-19T19:35:35.049Z,67.50
2023-01-19T19:38:02.281Z,67.40
2023-01-19T19:40:30.876Z,67.30
2023-01-19T19:42:58.908Z,67.30
2023-01-19T19:45:26.754Z,67.60
2023-01-19T19:47:54.010Z,67.60
2023-01-19T19:50:21.250Z,67.60
2023-01-19T19:52:48.528Z,67.50
2023-01-19T19:55:15.863Z,67.60
2023-01-19T19:57:44.565Z,67.60
2023-01-19T20:00:12.797Z,67.80
2023-01-19T20:02:40.210Z,67.70
2023-01-19T20:05:08.075Z,67.60
2023-01-19T20:07:35.341Z,67.60
2023-01-19T20:10:02.639Z,67.70
2023-01-19T20:12:29.870Z,67.50
2023-01-19T20:14:58.431Z,67.60
2023-01-19T20:17:25.675Z,67.70
2023-01-19T20:19:52.941Z,67.80
2023-01-19T20:22:20.214Z,67.70
2023-01-19T20:24:47.723Z,67.60
2023-01-19T20:27:14.988Z,67.60
2023-01-19T20:29:42.255Z,67.60
2023-01-19T20:32:11.465Z,67.60
2023-01-19T20:34:39.928Z,67.50
2023-01-19T20:37:07.286Z,67.80
2023-01-19T20:39:36.710Z,67.60
2023-01-19T20:42:05.436Z,67.80
2023-01-19T20:44:32.703Z,67.80
2023-01-19T20:46:59.948Z,68.00
2023-01-19T20:49:28.644Z,67.80
2023-01-19T20:51:55.964Z,68.30
2023-01-19T20:54:27.008Z,68.50
2023-01-19T20:56:54.551Z,68.50
2023-01-19T20:59:22.216Z,68.80
2023-01-19T21:01:49.967Z,68.80
2023-01-19T21:04:17.555Z,68.60
2023-01-19T21:06:46.214Z,68.60
2023-01-19T21:09:13.606Z,68.50
2023-01-19T21:11:40.931Z,68.60
2023-01-19T21:14:08.227Z,68.80
2023-01-19T21:16:36.250Z,69.00
2023-01-19T21:19:04.185Z,68.90
2023-01-19T21:21:32.141Z,69.00
2023-01-19T21:24:02.420Z,69.30
2023-01-19T21:26:30.433Z,69.30
2023-01-19T21:28:58.259Z,69.00
2023-01-19T21:31:27.730Z,68.80
2023-01-19T21:33:55.760Z,68.80
2023-01-19T21:36:23.194Z,68.60
2023-01-19T21:38:51.408Z,68.70
2023-01-19T21:41:20.354Z,68.70
2023-01-19T21:43:47.651Z,68.80
2023-01-19T21:46:19.186Z,69.00
2023-01-19T21:48:46.895Z,69.10
2023-01-19T21:51:15.235Z,69.10
2023-01-19T21:53:42.580Z,69.20
2023-01-19T21:56:11.381Z,69.40
2023-01-19T21:58:40.012Z,69.80
2023-01-19T22:01:13.592Z,69.60
2023-01-19T22:03:41.808Z,69.60
2023-01-19T22:06:11.526Z,69.50
2023-01-19T22:08:40.064Z,69.30
2023-01-19T22:11:09.356Z,69.50
2023-01-19T22:13:40.245Z,69.70
2023-01-19T22:16:10.837Z,69.90
2023-01-19T22:18:39.886Z,69.90
2023-01-19T22:21:08.966Z,69.70
2023-01-19T22:23:36.672Z,69.60
2023-01-19T22:26:04.426Z,69.70
2023-01-19T22:28:31.816Z,69.80
2023-01-19T22:31:11.520Z,69.70
2023-01-19T22:33:39.405Z,70.00
2023-01-19T22:36:15.388Z,70.00
2023-01-19T22:38:44.036Z,70.20
2023-01-19T22:41:15.865Z,70.00
2023-01-19T22:43:43.870Z,70.10
2023-01-19T22:46:12.865Z,70.20
2023-01-19T22:48:40.530Z,70.20
2023-01-19T22:51:08.014Z,70.20
2023-01-19T22:53:35.344Z,70.70
2023-01-19T22:56:09.935Z,70.60
2023-01-19T22:58:37.221Z,70.40
2023-01-19T23:01:06.129Z,70.80
2023-01-19T23:03:34.919Z,70.70
2023-01-19T23:06:06.084Z,70.80
2023-01-19T23:08:34.197Z,70.50
2023-01-19T23:11:05.099Z,70.70
2023-01-19T23:13:32.408Z,70.80
2023-01-19T23:16:00.161Z,71.10
2023-01-19T23:18:27.779Z,71.10
2023-01-19T23:21:01.402Z,71.30
2023-01-19T23:23:28.654Z,71.40
2023-01-19T23:25:59.695Z,71.40
2023-01-19T23:28:27.393Z,71.20
2023-01-19T23:30:54.958Z,71.20
2023-01-19T23:33:22.635Z,71.40
2023-01-19T23:35:49.932Z,71.60
2023-01-19T23:38:18.616Z,71.60
2023-01-19T23:40:46.375Z,71.90
2023-01-19T23:43:13.668Z,71.70
2023-01-19T23:45:41.001Z,71.80
2023-01-19T23:48:08.262Z,71.60
2023-01-19T23:50:39.437Z,71.50
2023-01-19T23:53:06.969Z,71.50
2023-01-19T23:55:35.607Z,71.50
2023-01-19T23:58:02.847Z,71.30
